Time;durP1;ratioP1;P1;durP2;ratioP2;P2;SDS_P1;SDS_P2;PMS_P1;PMS_P2;Temp;Humidity;BMP_temperature;BMP_pressure;BME280_temperature;BME280_humidity;BME280_pressure;Samples;Min_cycle;Max_cycle;Signal;HPM_P1;HPM_P2
2023/07/25 03:58:52;;;;;;;4.75;2.83;;;;;;;21.35;100.00;99264.00;6555779;26;20108;-85
2023/07/25 04:01:56;;;;;;;4.65;2.60;;;;;;;21.40;100.00;99264.03;6586897;27;34899;-85
2023/07/25 04:04:59;;;;;;;13.55;3.08;;;;;;;21.40;100.00;99270.31;6569384;27;33730;-86
2023/07/25 04:08:02;;;;;;;5.95;3.10;;;;;;;21.52;100.00;99272.75;6587049;27;34759;-86
2023/07/25 04:11:05;;;;;;;4.70;2.60;;;;;;;21.50;100.00;99281.28;6606623;27;33573;-86
2023/07/25 04:14:10;;;;;;;3.85;2.40;;;;;;;21.51;100.00;99276.63;6588660;27;33663;-86
2023/07/25 04:17:13;;;;;;;6.82;2.50;;;;;;;21.56;100.00;99270.28;6569675;27;33790;-86
2023/07/25 04:20:15;;;;;;;4.55;2.50;;;;;;;21.61;100.00;99275.75;6587101;27;34053;-85
2023/07/25 04:23:20;;;;;;;3.85;2.40;;;;;;;21.61;100.00;99267.53;6587016;27;33659;-86
2023/07/25 04:26:23;;;;;;;3.55;2.08;;;;;;;21.70;100.00;99260.41;6592868;27;33299;-86
2023/07/25 04:29:26;;;;;;;4.78;2.55;;;;;;;21.78;100.00;99251.59;6590293;27;34653;-86
2023/07/25 04:32:29;;;;;;;6.47;2.42;;;;;;;21.82;100.00;99252.72;6612575;27;34679;-86
2023/07/25 04:35:32;;;;;;;9.80;2.80;;;;;;;21.87;100.00;99251.84;6591834;27;34930;-90
2023/07/25 04:38:35;;;;;;;7.03;2.47;;;;;;;21.87;100.00;99268.28;6589526;27;34761;-90
2023/07/25 04:41:38;;;;;;;5.20;2.83;;;;;;;21.86;100.00;99258.44;6552912;27;33972;-90
2023/07/25 04:44:43;;;;;;;5.72;2.15;;;;;;;21.83;100.00;99254.34;6570410;27;34021;-90
2023/07/25 04:47:46;;;;;;;5.03;2.55;;;;;;;21.86;100.00;99261.19;6614715;27;33561;-87
2023/07/25 04:50:49;;;;;;;6.72;2.80;;;;;;;21.87;100.00;99265.56;6586178;27;33672;-87
2023/07/25 04:53:52;;;;;;;8.82;3.10;;;;;;;22.00;100.00;99280.59;6588252;27;36176;-86
2023/07/25 04:56:54;;;;;;;8.20;2.92;;;;;;;22.04;100.00;99271.50;6569703;27;33305;-87
2023/07/25 04:59:57;;;;;;;6.93;2.80;;;;;;;22.17;100.00;99281.06;6559974;27;34642;-86
2023/07/25 05:03:00;;;;;;;6.40;2.60;;;;;;;22.38;100.00;99268.91;6577584;27;33730;-86
2023/07/25 05:06:03;;;;;;;7.25;3.12;;;;;;;22.62;100.00;99249.03;6577768;27;33718;-86
2023/07/25 05:09:06;;;;;;;4.35;2.65;;;;;;;22.95;100.00;99265.81;6559689;27;33642;-86
2023/07/25 05:12:12;;;;;;;5.68;2.62;;;;;;;23.27;100.00;99273.50;6577916;27;34722;-86
2023/07/25 05:15:15;;;;;;;3.97;2.22;;;;;;;23.42;96.78;99232.16;6579376;27;34425;-86
2023/07/25 05:18:21;;;;;;;6.15;3.03;;;;;;;23.50;97.22;99234.25;6577783;27;33295;-86
2023/07/25 05:21:23;;;;;;;7.22;2.80;;;;;;;23.63;97.33;99226.44;6560461;27;33605;-86
2023/07/25 05:24:26;;;;;;;5.60;2.87;;;;;;;23.69;95.72;99228.84;6560056;27;34101;-86
2023/07/25 05:27:29;;;;;;;4.40;2.50;;;;;;;23.77;93.67;99236.44;6560627;27;33176;-86
2023/07/25 05:30:33;;;;;;;4.75;2.30;;;;;;;23.82;94.38;99237.53;6580645;27;33575;-86
2023/07/25 05:33:35;;;;;;;8.88;2.72;;;;;;;23.90;93.19;99225.88;6561073;27;34633;-86
2023/07/25 05:36:38;;;;;;;5.25;2.72;;;;;;;24.02;93.30;99231.78;6562257;27;35496;-86
2023/07/25 05:39:41;;;;;;;10.90;2.75;;;;;;;24.12;89.25;99237.13;6560358;27;33631;-86
2023/07/25 05:42:44;;;;;;;7.07;3.17;;;;;;;24.25;89.90;99234.75;6569454;27;33590;-87
2023/07/25 05:45:46;;;;;;;4.78;2.60;;;;;;;24.35;86.44;99232.69;6581399;27;35026;-87
2023/07/25 05:48:49;;;;;;;6.57;2.47;;;;;;;24.54;87.22;99218.97;6568162;27;34253;-86
2023/07/25 05:51:53;;;;;;;7.03;2.90;;;;;;;24.72;85.40;99219.25;6577472;27;33399;-86
2023/07/25 05:54:56;;;;;;;4.78;2.87;;;;;;;24.78;83.15;99224.37;6579105;27;33492;-87
2023/07/25 05:57:59;;;;;;;6.15;2.75;;;;;;;24.91;83.60;99238.47;6578244;27;33418;-87
2023/07/25 06:01:02;;;;;;;6.07;2.90;;;;;;;25.08;81.76;99245.06;6577816;27;33687;-87
2023/07/25 06:04:06;;;;;;;10.05;2.90;;;;;;;25.21;82.27;99261.94;6559359;27;34750;-86
2023/07/25 06:07:08;;;;;;;5.57;2.80;;;;;;;25.30;81.23;99260.13;6559656;27;34153;-87
2023/07/25 06:10:11;;;;;;;4.78;2.62;;;;;;;25.41;81.08;99258.81;6561352;27;33539;-87
2023/07/25 06:13:14;;;;;;;4.57;2.80;;;;;;;25.61;79.04;99243.03;6560745;27;34452;-87
2023/07/25 06:16:17;;;;;;;4.03;2.37;;;;;;;25.59;79.24;99239.75;6552771;27;215645;-86
2023/07/25 06:19:21;;;;;;;5.50;2.42;;;;;;;25.43;78.66;99225.47;6560609;27;33386;-87
2023/07/25 06:22:24;;;;;;;4.00;2.28;;;;;;;25.46;73.00;99235.88;6580438;27;33583;-87
2023/07/25 06:25:27;;;;;;;8.15;2.70;;;;;;;25.52;76.52;99229.16;6586440;27;34087;-87
2023/07/25 06:28:30;;;;;;;6.35;2.65;;;;;;;25.75;76.49;99211.59;6584431;27;34700;-87
2023/07/25 06:31:33;;;;;;;5.18;2.55;;;;;;;25.88;74.80;99203.66;6582463;27;34564;-87
2023/07/25 06:34:36;;;;;;;5.07;2.50;;;;;;;25.95;73.85;99198.53;6584784;27;33161;-87
2023/07/25 06:37:39;;;;;;;6.87;2.80;;;;;;;25.99;74.01;99196.78;6577628;27;33308;-87
2023/07/25 06:40:42;;;;;;;7.10;2.80;;;;;;;25.91;73.11;99195.56;6559332;27;34348;-87
2023/07/25 06:43:44;;;;;;;5.45;2.87;;;;;;;26.04;72.89;99195.88;6577608;27;34643;-87
2023/07/25 06:46:47;;;;;;;4.30;2.75;;;;;;;25.96;71.17;99183.63;6577304;27;34086;-87
2023/07/25 06:49:51;;;;;;;3.42;2.33;;;;;;;26.19;72.90;99181.75;6559889;27;33495;-87
2023/07/25 06:52:53;;;;;;;5.55;2.80;;;;;;;26.46;68.38;99178.06;6578882;27;34252;-87
2023/07/25 06:55:56;;;;;;;6.22;2.42;;;;;;;26.90;67.46;99177.25;6559867;27;33550;-87
2023/07/25 06:58:59;;;;;;;4.65;2.70;;;;;;;27.08;65.17;99174.59;6577922;27;33448;-90
2023/07/25 07:02:02;;;;;;;4.53;2.55;;;;;;;27.21;62.93;99159.91;6595155;27;34884;-91
2023/07/25 07:05:06;;;;;;;5.87;2.92;;;;;;;27.18;62.65;99154.22;6577797;27;33697;-91
2023/07/25 07:08:29;;;;;;;3.53;2.25;;;;;;;27.09;64.44;99146.66;6592859;27;33380;-88
2023/07/25 07:11:32;;;;;;;3.75;2.62;;;;;;;27.06;65.52;99144.53;6578488;27;33530;-87
2023/07/25 07:14:35;;;;;;;5.75;2.33;;;;;;;27.06;64.03;99141.78;6577611;27;33302;-87
2023/07/25 07:17:38;;;;;;;3.78;2.50;;;;;;;27.09;62.76;99126.53;6576471;27;33388;-87
2023/07/25 07:20:48;;;;;;;3.90;2.50;;;;;;;27.22;61.59;99116.53;6595186;27;33627;-87
2023/07/25 07:23:51;;;;;;;3.92;2.60;;;;;;;27.30;64.17;99111.03;6576756;27;33522;-87
2023/07/25 07:26:54;;;;;;;5.28;2.58;;;;;;;27.60;62.48;99116.78;6578004;27;33844;-87
2023/07/25 07:29:57;;;;;;;6.25;3.03;;;;;;;27.80;62.61;99113.44;6592226;27;33742;-88
2023/07/25 07:32:59;;;;;;;4.25;2.50;;;;;;;27.67;62.28;99119.91;6608692;27;34359;-87
2023/07/25 07:36:03;;;;;;;5.43;2.40;;;;;;;27.81;60.89;99112.31;6577874;27;33517;-86
2023/07/25 07:39:05;;;;;;;3.40;2.28;;;;;;;28.02;59.77;99086.75;6577984;27;34305;-86
2023/07/25 07:42:08;;;;;;;5.53;2.58;;;;;;;28.34;58.80;99104.00;6578836;27;33527;-86
2023/07/25 07:45:11;;;;;;;4.43;2.78;;;;;;;28.43;58.73;99097.38;6595851;27;33586;-86
2023/07/25 07:48:14;;;;;;;3.28;2.35;;;;;;;28.70;57.64;99096.19;6577612;27;34518;-86
2023/07/25 07:51:17;;;;;;;3.45;2.25;;;;;;;28.76;55.80;99093.22;6575822;27;34170;-87
2023/07/25 07:54:20;;;;;;;3.72;2.50;;;;;;;28.98;54.51;99094.94;6577920;27;33619;-86
2023/07/25 07:57:22;;;;;;;4.12;2.30;;;;;;;28.86;53.88;99104.75;6595911;27;33711;-86
2023/07/25 08:00:25;;;;;;;2.80;2.30;;;;;;;28.79;53.41;99104.47;6595164;27;32912;-86
2023/07/25 08:03:28;;;;;;;6.43;2.70;;;;;;;28.49;54.79;99092.47;6576440;27;33153;-86
2023/07/25 08:06:31;;;;;;;8.73;2.78;;;;;;;28.25;56.22;99084.66;6577998;27;33741;-86
2023/07/25 08:09:34;;;;;;;5.30;2.92;;;;;;;27.75;58.94;99096.97;6578877;27;33376;-86
2023/07/25 08:12:37;;;;;;;6.32;3.03;;;;;;;27.42;61.39;99098.53;6578674;27;33410;-86
2023/07/25 08:15:40;;;;;;;6.20;2.83;;;;;;;27.07;64.46;99095.63;6594949;27;33593;-86
2023/07/25 08:18:43;;;;;;;6.80;2.97;;;;;;;26.72;69.14;99089.94;6576754;27;33682;-86
2023/07/25 08:21:46;;;;;;;7.85;2.80;;;;;;;26.55;71.86;99089.81;6582656;27;33658;-86
2023/07/25 08:24:52;;;;;;;5.07;2.70;;;;;;;26.38;72.50;99091.31;6580619;27;34556;-86
2023/07/25 08:27:55;;;;;;;6.03;2.92;;;;;;;26.21;74.43;99078.22;6585400;27;33519;-86
2023/07/25 08:31:05;;;;;;;5.55;3.00;;;;;;;26.08;75.30;99078.28;6586030;27;34187;-86
2023/07/25 08:34:08;;;;;;;3.83;2.70;;;;;;;26.09;75.40;99071.63;6580906;27;33795;-86
2023/07/25 08:37:10;;;;;;;3.92;2.87;;;;;;;25.89;76.72;99059.97;6578718;27;34364;-86
2023/07/25 08:40:13;;;;;;;8.88;2.58;;;;;;;25.72;76.23;99059.78;6598193;27;34292;-86
2023/07/25 08:43:18;;;;;;;4.70;2.65;;;;;;;25.50;79.82;99072.34;6604148;27;33741;-86
2023/07/25 08:46:26;;;;;;;8.77;3.17;;;;;;;25.47;80.15;99067.47;6608285;27;33872;-86
2023/07/25 08:49:34;;;;;;;8.57;3.12;;;;;;;25.28;84.20;99081.38;6578851;27;33574;-86
2023/07/25 08:52:40;;;;;;;5.03;3.13;;;;;;;24.43;94.72;99074.41;6577345;27;34141;-90
2023/07/25 08:55:44;;;;;;;5.12;3.00;;;;;;;23.89;100.00;99092.28;6559554;27;33585;-90
2023/07/25 08:58:48;;;;;;;5.18;2.40;;;;;;;23.64;100.00;99090.69;6578996;27;33396;-86
2023/07/25 09:01:54;;;;;;;3.37;2.67;;;;;;;23.59;100.00;99091.56;6577259;27;35198;-86
2023/07/25 09:04:58;;;;;;;8.40;3.20;;;;;;;23.50;100.00;99126.31;6577408;27;33168;-86
2023/07/25 09:08:00;;;;;;;15.07;3.80;;;;;;;23.36;100.00;99136.38;6595405;27;34329;-86
2023/07/25 09:11:06;;;;;;;10.23;3.05;;;;;;;23.03;100.00;99138.94;6578144;27;34291;-86
2023/07/25 09:14:08;;;;;;;7.00;4.00;;;;;;;22.44;100.00;99153.72;6595088;27;34828;-86
2023/07/25 09:17:12;;;;;;;8.48;3.03;;;;;;;22.09;100.00;99216.69;6577209;27;33609;-86
2023/07/25 09:20:15;;;;;;;8.45;3.40;;;;;;;21.99;100.00;99274.28;6578933;27;33479;-86
2023/07/25 09:23:21;;;;;;;7.80;3.40;;;;;;;21.85;100.00;99391.91;6578435;27;33666;-85
2023/07/25 09:26:26;;;;;;;10.50;3.42;;;;;;;21.77;100.00;99441.75;6577650;27;33679;-85
2023/07/25 09:29:30;;;;;;;6.87;3.00;;;;;;;21.50;100.00;99401.78;6578377;27;33328;-84
2023/07/25 09:32:33;;;;;;;5.53;2.72;;;;;;;21.19;100.00;99381.72;6594652;27;33761;-84
2023/07/25 09:35:45;;;;;;;7.90;4.00;;;;;;;20.92;100.00;99392.91;6594587;27;34411;-84
2023/07/25 09:38:54;;;;;;;7.90;3.87;;;;;;;20.72;100.00;99380.00;6579216;27;34395;-84
2023/07/25 09:41:57;;;;;;;4.43;3.22;;;;;;;20.60;100.00;99384.88;6578583;27;33743;-84
2023/07/25 09:45:00;;;;;;;6.15;3.42;;;;;;;20.36;100.00;99384.50;6578193;27;34110;-84
2023/07/25 09:48:03;;;;;;;6.22;3.17;;;;;;;20.19;100.00;99379.22;6594671;27;34931;-84
2023/07/25 09:51:06;;;;;;;5.40;3.45;;;;;;;20.07;100.00;99364.94;6575956;27;33658;-81
2023/07/25 09:54:09;;;;;;;8.75;3.45;;;;;;;20.03;100.00;99352.87;6577078;27;34062;-82
2023/07/25 09:57:12;;;;;;;4.82;3.22;;;;;;;19.99;100.00;99327.19;6582151;27;33213;-81
2023/07/25 10:00:15;;;;;;;5.53;3.25;;;;;;;19.99;100.00;99308.06;6594309;27;34325;-81
2023/07/25 10:03:21;;;;;;;9.05;3.53;;;;;;;19.99;100.00;99287.03;6594225;27;34524;-80
2023/07/25 10:06:25;;;;;;;8.48;3.45;;;;;;;20.05;100.00;99263.28;6594153;26;33619;-83
2023/07/25 10:09:30;;;;;;;6.43;3.70;;;;;;;20.20;100.00;99255.13;6594449;27;33255;-80
2023/07/25 10:12:33;;;;;;;7.43;3.65;;;;;;;20.27;100.00;99261.19;6587197;27;33508;-81
2023/07/25 10:15:36;;;;;;;5.75;3.75;;;;;;;20.19;100.00;99263.63;6589628;27;34364;-81
2023/07/25 10:18:40;;;;;;;6.28;3.60;;;;;;;20.09;100.00;99273.38;6578525;27;33651;-82
2023/07/25 10:21:51;;;;;;;7.80;3.80;;;;;;;20.05;100.00;99298.81;6583813;27;34330;-82
2023/07/25 10:24:54;;;;;;;6.85;3.65;;;;;;;20.19;100.00;99310.06;6582798;27;33823;-82
2023/07/25 10:28:01;;;;;;;5.87;3.53;;;;;;;20.33;100.00;99298.38;6581472;27;33892;-84
2023/07/25 10:31:08;;;;;;;8.00;2.87;;;;;;;20.50;100.00;99292.66;6583655;27;33656;-84
2023/07/25 10:34:15;;;;;;;4.97;3.35;;;;;;;20.69;100.00;99301.22;6579669;27;33822;-84
2023/07/25 10:37:27;;;;;;;4.43;3.30;;;;;;;20.95;100.00;99334.09;6580339;27;33740;-85
2023/07/25 10:41:19;;;;;;;5.47;3.40;;;;;;;21.21;100.00;99334.94;6579590;27;33931;-85
2023/07/25 10:44:37;;;;;;;6.45;3.17;;;;;;;21.77;100.00;99301.22;6578686;27;34345;-85
2023/07/25 10:47:44;;;;;;;6.30;3.35;;;;;;;22.40;100.00;99274.09;6596579;27;33542;-85
2023/07/25 10:50:47;;;;;;;5.32;2.85;;;;;;;22.56;100.00;99266.63;6580048;27;33651;-85
2023/07/25 10:54:09;;;;;;;5.80;3.50;;;;;;;22.78;100.00;99239.56;6578171;27;33781;-85
2023/07/25 10:57:22;;;;;;;3.37;2.85;;;;;;;22.89;100.00;99234.00;6580123;27;33626;-85
2023/07/25 11:00:38;;;;;;;5.65;2.70;;;;;;;23.07;100.00;99220.41;6576885;27;33656;-85
2023/07/25 11:03:41;;;;;;;3.92;2.60;;;;;;;23.20;100.00;99224.41;6578637;27;33698;-85
2023/07/25 11:06:44;;;;;;;6.43;3.15;;;;;;;23.65;100.00;99233.28;6577065;27;33638;-85
2023/07/25 11:09:47;;;;;;;6.12;3.17;;;;;;;24.01;100.00;99246.63;6578210;27;33791;-85
2023/07/25 11:12:55;;;;;;;5.43;3.37;;;;;;;25.14;100.00;99234.81;6588669;27;33326;-84
2023/07/25 11:16:00;;;;;;;4.37;2.93;;;;;;;25.63;100.00;99218.75;6596139;27;34495;-84
2023/07/25 11:19:03;;;;;;;3.85;2.90;;;;;;;25.00;100.00;99200.87;6607796;27;34936;-88
2023/07/25 11:22:12;;;;;;;6.47;2.90;;;;;;;23.89;100.00;99170.06;6599022;27;33901;-89
2023/07/25 11:25:16;;;;;;;5.50;2.97;;;;;;;23.85;100.00;99151.72;6597417;27;34630;-86
2023/07/25 11:28:21;;;;;;;6.87;3.17;;;;;;;24.31;100.00;99138.13;6580747;27;34113;-86
2023/07/25 11:31:24;;;;;;;5.30;3.12;;;;;;;24.67;100.00;99119.13;6579762;27;33986;-86
2023/07/25 11:34:27;;;;;;;5.43;3.03;;;;;;;24.80;100.00;99130.44;6579181;27;33460;-86
2023/07/25 11:37:30;;;;;;;4.80;3.00;;;;;;;24.19;100.00;99124.84;6578075;27;33133;-86
2023/07/25 11:40:34;;;;;;;6.22;3.47;;;;;;;24.87;100.00;99114.38;6581208;27;34219;-86
2023/07/25 11:43:38;;;;;;;7.18;3.10;;;;;;;25.66;100.00;99105.12;6612989;26;33922;-86
2023/07/25 11:46:44;;;;;;;4.87;3.12;;;;;;;25.57;100.00;99105.03;6591390;27;34662;-86
2023/07/25 11:49:47;;;;;;;4.68;2.70;;;;;;;25.16;100.00;99102.31;6579835;27;34668;-86
2023/07/25 11:53:04;;;;;;;4.15;2.97;;;;;;;24.98;100.00;99084.69;6577517;27;34729;-85
2023/07/25 11:56:07;;;;;;;4.25;3.00;;;;;;;24.67;100.00;99079.78;6594784;27;34369;-86
2023/07/25 11:59:13;;;;;;;4.25;2.92;;;;;;;24.75;100.00;99086.53;6595952;27;33120;-86
2023/07/25 12:02:16;;;;;;;4.05;2.70;;;;;;;25.05;100.00;99105.22;6578990;27;33996;-86
2023/07/25 12:05:27;;;;;;;5.15;4.57;;;;;;;25.11;97.92;99090.22;6578453;27;34266;-86
2023/07/25 12:08:33;;;;;;;4.18;3.00;;;;;;;25.29;99.96;99107.78;6594303;27;33685;-85
2023/07/25 12:11:41;;;;;;;4.15;2.62;;;;;;;25.97;95.36;99119.06;6578534;27;34356;-86
2023/07/25 12:14:58;;;;;;;7.25;2.95;;;;;;;26.45;89.34;99108.25;6578353;27;34144;-86
2023/07/25 12:18:00;;;;;;;3.50;2.65;;;;;;;26.55;91.70;99120.19;6578865;27;33595;-86
2023/07/25 12:21:04;;;;;;;4.87;3.00;;;;;;;26.46;90.35;99129.19;6584252;27;33729;-86
2023/07/25 12:24:09;;;;;;;4.35;2.70;;;;;;;25.79;92.74;99129.88;6582614;27;33971;-86
2023/07/25 12:27:19;;;;;;;5.10;3.30;;;;;;;25.31;92.80;99138.63;6584140;27;33570;-85
2023/07/25 12:30:23;;;;;;;5.20;3.15;;;;;;;24.64;97.39;99141.72;6602943;27;33711;-86
2023/07/25 12:33:25;;;;;;;5.53;3.10;;;;;;;24.25;100.00;99119.22;6580468;27;34182;-86
2023/07/25 12:36:28;;;;;;;4.00;2.87;;;;;;;24.12;100.00;99126.31;6597712;27;33811;-83
2023/07/25 12:39:31;;;;;;;4.40;3.08;;;;;;;24.32;100.00;99116.94;6561052;27;33461;-85
2023/07/25 12:42:34;;;;;;;4.45;3.20;;;;;;;24.46;100.00;99130.78;6579130;27;34235;-85
2023/07/25 12:45:37;;;;;;;5.25;3.45;;;;;;;24.74;97.94;99131.66;6597654;27;33468;-85
2023/07/25 12:48:40;;;;;;;6.87;3.30;;;;;;;24.55;100.00;99116.03;6579787;27;33800;-85
2023/07/25 12:51:43;;;;;;;6.50;3.67;;;;;;;24.37;100.00;99112.16;6584144;27;34409;-85
2023/07/25 12:54:46;;;;;;;4.72;3.37;;;;;;;24.33;100.00;99067.09;6613044;27;35054;-89
2023/07/25 12:57:49;;;;;;;6.15;3.80;;;;;;;23.93;100.00;99049.34;6580118;27;35912;-89
2023/07/25 13:00:52;;;;;;;6.78;3.75;;;;;;;23.62;100.00;99019.53;6576456;27;33551;-89
2023/07/25 13:03:55;;;;;;;7.10;3.67;;;;;;;23.55;100.00;99010.87;6558886;27;34401;-85
2023/07/25 13:06:58;;;;;;;7.35;3.65;;;;;;;23.40;100.00;99011.91;6577516;27;33582;-85
2023/07/25 13:10:02;;;;;;;5.53;3.60;;;;;;;23.61;100.00;98995.13;6579971;27;34466;-85
2023/07/25 13:13:05;;;;;;;6.35;3.50;;;;;;;24.07;100.00;98975.97;6577597;27;33665;-85
2023/07/25 13:16:08;;;;;;;6.25;3.35;;;;;;;25.28;100.00;98984.97;6577431;27;34416;-85
2023/07/25 13:19:12;;;;;;;5.62;3.10;;;;;;;26.41;97.72;98991.34;6594705;27;33325;-85
2023/07/25 13:22:15;;;;;;;5.62;3.45;;;;;;;27.56;90.92;99008.00;6594909;27;34878;-85
2023/07/25 13:25:18;;;;;;;5.68;3.25;;;;;;;27.67;87.71;99006.53;6576287;27;33365;-86
2023/07/25 13:28:21;;;;;;;4.30;2.55;;;;;;;27.53;88.76;99047.34;6578751;27;33543;-85
2023/07/25 13:31:24;;;;;;;5.40;3.20;;;;;;;26.67;91.23;99021.03;6576677;27;33759;-85
2023/07/25 13:34:27;;;;;;;5.85;3.03;;;;;;;25.99;93.78;99059.69;6595406;27;33219;-85
2023/07/25 13:37:30;;;;;;;4.60;3.17;;;;;;;26.02;98.39;99045.28;6595077;27;34221;-85
2023/07/25 13:40:33;;;;;;;5.78;2.85;;;;;;;26.33;91.13;99076.84;6595592;27;33197;-85
2023/07/25 13:43:37;;;;;;;3.62;2.78;;;;;;;26.30;90.53;99089.31;6579423;27;33608;-86
2023/07/25 13:46:40;;;;;;;5.43;2.47;;;;;;;25.81;95.66;99079.16;6579639;27;33570;-85
2023/07/25 13:49:43;;;;;;;4.70;3.17;;;;;;;27.18;88.06;99091.47;6578788;27;34484;-85
2023/07/25 13:52:46;;;;;;;4.80;2.72;;;;;;;27.10;86.23;99083.94;6578890;27;33643;-85
2023/07/25 13:55:49;;;;;;;4.97;2.62;;;;;;;25.92;92.78;99103.47;6577325;27;33760;-85
2023/07/25 13:58:52;;;;;;;6.30;2.85;;;;;;;25.54;96.69;99116.69;6594782;27;33623;-85
2023/07/25 14:01:56;;;;;;;4.93;2.70;;;;;;;25.29;96.30;99105.03;6579900;27;33950;-85
2023/07/25 14:04:59;;;;;;;4.25;2.50;;;;;;;26.05;94.39;99087.16;6577185;27;33293;-85
2023/07/25 14:08:06;;;;;;;3.90;2.37;;;;;;;27.00;86.50;99103.53;6576676;27;33608;-85
2023/07/25 14:11:09;;;;;;;3.78;2.87;;;;;;;26.71;89.37;99081.97;6594379;27;33234;-85
2023/07/25 14:14:12;;;;;;;3.37;2.60;;;;;;;26.83;87.67;99083.00;6596733;27;34347;-86
2023/07/25 14:17:15;;;;;;;4.03;2.12;;;;;;;27.79;80.80;99083.38;6595739;27;33356;-85
2023/07/25 14:20:18;;;;;;;5.95;2.25;;;;;;;27.96;79.56;99065.94;6583269;27;33681;-85
2023/07/25 14:23:21;;;;;;;3.75;2.35;;;;;;;28.22;78.57;99065.94;6599838;27;33512;-86
2023/07/25 14:26:23;;;;;;;3.08;2.12;;;;;;;28.00;79.79;99055.87;6599157;27;33828;-85
2023/07/25 14:29:26;;;;;;;4.97;2.10;;;;;;;27.72;76.96;99033.22;6583688;27;34811;-86
2023/07/25 14:32:29;;;;;;;2.85;1.77;;;;;;;27.36;77.61;99010.25;6579088;27;34484;-85
2023/07/25 14:35:32;;;;;;;2.37;2.00;;;;;;;27.57;78.21;98998.56;6595736;27;33627;-86
2023/07/25 14:38:35;;;;;;;1.87;1.48;;;;;;;27.71;73.86;99029.62;6596315;27;34289;-85
2023/07/25 14:41:38;;;;;;;3.87;2.30;;;;;;;27.47;75.03;99049.44;6604544;27;34339;-85
2023/07/25 14:44:40;;;;;;;3.15;2.40;;;;;;;27.16;76.19;99041.25;6613359;27;33697;-86
2023/07/25 14:47:44;;;;;;;4.07;2.00;;;;;;;26.63;79.46;99012.59;6584573;27;35057;-86
2023/07/25 14:50:47;;;;;;;2.92;1.85;;;;;;;26.57;79.16;98913.66;6577269;27;34572;-85
2023/07/25 14:53:52;;;;;;;4.90;2.00;;;;;;;26.11;80.93;98866.06;6578658;27;33494;-86
2023/07/25 14:56:55;;;;;;;5.10;2.22;;;;;;;25.73;82.95;98874.75;6598635;27;33876;-86
2023/07/25 14:59:58;;;;;;;3.92;2.25;;;;;;;25.69;85.91;98864.69;6595347;27;33650;-86
2023/07/25 15:03:01;;;;;;;2.25;2.05;;;;;;;25.65;85.13;98872.75;6578921;27;34228;-86
2023/07/25 15:06:04;;;;;;;3.50;2.10;;;;;;;25.92;81.95;98884.78;6579376;27;33618;-86
2023/07/25 15:09:07;;;;;;;3.95;1.70;;;;;;;25.51;87.21;98891.31;6595771;27;34345;-85
2023/07/25 15:12:10;;;;;;;4.12;2.10;;;;;;;25.72;84.09;98897.13;6596071;27;33597;-86
2023/07/25 15:15:13;;;;;;;3.87;2.17;;;;;;;25.57;85.37;98906.59;6595157;27;33619;-89
2023/07/25 15:18:16;;;;;;;3.47;2.10;;;;;;;25.44;86.87;98905.50;6576633;27;33407;-86
2023/07/25 15:21:19;;;;;;;3.20;2.08;;;;;;;25.46;84.93;98917.03;6577072;27;33586;-86
2023/07/25 15:24:22;;;;;;;4.30;2.33;;;;;;;25.23;88.21;98909.88;6577769;27;33118;-85
2023/07/25 15:27:26;;;;;;;3.78;2.33;;;;;;;25.24;85.80;98903.22;6578711;27;33565;-85
2023/07/25 15:30:31;;;;;;;2.75;2.28;;;;;;;24.97;88.03;98891.13;6578354;27;34057;-85
2023/07/25 15:33:34;;;;;;;5.25;1.98;;;;;;;24.76;87.55;98921.06;6594218;27;33543;-85
2023/07/25 15:36:37;;;;;;;3.00;2.22;;;;;;;24.79;89.62;98916.88;6613989;26;33920;-86
2023/07/25 15:39:40;;;;;;;4.40;2.35;;;;;;;24.73;91.78;98924.41;6577730;27;33682;-86
2023/07/25 15:42:43;;;;;;;4.12;2.28;;;;;;;24.66;88.85;98932.28;6580096;27;33605;-86
2023/07/25 15:45:46;;;;;;;5.35;2.83;;;;;;;24.60;91.59;98950.84;6577743;27;33247;-86
2023/07/25 15:48:49;;;;;;;3.70;2.00;;;;;;;24.65;91.47;98958.16;6595854;27;33621;-86
2023/07/25 15:51:52;;;;;;;2.58;1.80;;;;;;;24.89;90.77;98971.69;6595760;27;33758;-86
